Terminal Aerodrome Forecast
Issued by NWS

Home | Current Version | Previous Version | Text Only | Print | Product List | Glossary On
Versions: 1 2 3 4 5 6 7 8 9 10 11 12 13 14 15 16 17 18 19 20 21
000
FTUS43 KDTX 240925 AAA
TAFMBS
TAF AMD
KMBS 240925Z 2409/2506 04008KT 2SM BR OVC002
     FM241500 04015KT P6SM BKN060
     FM242000 09008KT 5SM -SHRA BR BKN028 PROB30 2420/2424 -TSRA
      BKN025CB
     FM250000 07011KT 4SM -SHRA BR BKN015=

USA.gov is the U.S. government's official web portal to all federal, state and local government web resources and services.